Lyme Center, New Hampshire
Current Conditions -  °F | °C
As of 10:53 AM on Friday 24 Oct 2014 (Local Time) from KLEB Reporting Station
Overcast Overcast  
Wind Chill: 43°   Ceiling: 1200
Heat Index: 47°   Visibility: 10mi
Dew Point: 40°   Wind: 9mph
Humidity: 77%   Direction: 330°NNW
Pressure: 29.77"   Gusts: NA
Location:  43.8°N, 72.12°W
Report Text: KLEB 241453Z 33008KT 10SM OVC012 08/04 A2977 RMK AO2 SLP083 T00830044 58001
Loading
Personal Weather Stations






























Interactive Weather Map
Tropical Storm Tracking
New forecast layout! Learn more

10-Day Weather Forecast

Advertisements
Track Severe Weather on mobile